sensor_id;sensor_type;location;lat;lon;timestamp;temperature;humidity
24262;DHT22;12385;51.412;5.540;2023-07-13T00:02:22;17.10;99.90
24262;DHT22;12385;51.412;5.540;2023-07-13T00:04:47;17.10;99.90
24262;DHT22;12385;51.412;5.540;2023-07-13T00:07:13;17.00;99.90
24262;DHT22;12385;51.412;5.540;2023-07-13T00:09:40;17.00;99.90
24262;DHT22;12385;51.412;5.540;2023-07-13T00:12:31;17.00;99.90
24262;DHT22;12385;51.412;5.540;2023-07-13T00:14:59;17.00;99.90
24262;DHT22;12385;51.412;5.540;2023-07-13T00:17:26;17.00;99.90
24262;DHT22;12385;51.412;5.540;2023-07-13T00:19:53;17.00;99.90
24262;DHT22;12385;51.412;5.540;2023-07-13T00:22:19;17.00;99.90
24262;DHT22;12385;51.412;5.540;2023-07-13T00:24:45;17.00;99.90
24262;DHT22;12385;51.412;5.540;2023-07-13T00:27:11;17.00;99.90
24262;DHT22;12385;51.412;5.540;2023-07-13T00:29:37;17.00;99.90
24262;DHT22;12385;51.412;5.540;2023-07-13T00:32:04;17.00;99.90
24262;DHT22;12385;51.412;5.540;2023-07-13T00:34:30;17.00;99.90
24262;DHT22;12385;51.412;5.540;2023-07-13T00:36:56;16.90;99.90
24262;DHT22;12385;51.412;5.540;2023-07-13T00:39:22;16.90;99.90
24262;DHT22;12385;51.412;5.540;2023-07-13T00:41:49;16.90;99.90
24262;DHT22;12385;51.412;5.540;2023-07-13T00:44:16;16.80;99.90
24262;DHT22;12385;51.412;5.540;2023-07-13T00:46:42;16.80;99.90
24262;DHT22;12385;51.412;5.540;2023-07-13T00:49:19;16.80;99.90
24262;DHT22;12385;51.412;5.540;2023-07-13T00:51:49;16.80;99.90
24262;DHT22;12385;51.412;5.540;2023-07-13T00:54:21;16.70;99.90
24262;DHT22;12385;51.412;5.540;2023-07-13T00:56:51;16.70;99.90
24262;DHT22;12385;51.412;5.540;2023-07-13T00:59:17;16.70;99.90
24262;DHT22;12385;51.412;5.540;2023-07-13T01:01:45;16.60;99.90
24262;DHT22;12385;51.412;5.540;2023-07-13T01:04:10;16.70;99.90
24262;DHT22;12385;51.412;5.540;2023-07-13T01:06:37;16.70;99.90
24262;DHT22;12385;51.412;5.540;2023-07-13T01:09:05;16.70;99.90
24262;DHT22;12385;51.412;5.540;2023-07-13T01:11:31;16.70;99.90
24262;DHT22;12385;51.412;5.540;2023-07-13T01:13:57;16.70;99.90
24262;DHT22;12385;51.412;5.540;2023-07-13T01:16:27;16.70;99.90
24262;DHT22;12385;51.412;5.540;2023-07-13T01:18:54;16.80;99.90
24262;DHT22;12385;51.412;5.540;2023-07-13T01:21:24;16.70;99.90
24262;DHT22;12385;51.412;5.540;2023-07-13T01:23:50;16.70;99.90
24262;DHT22;12385;51.412;5.540;2023-07-13T01:26:16;16.60;99.90
24262;DHT22;12385;51.412;5.540;2023-07-13T01:28:42;16.60;99.90
24262;DHT22;12385;51.412;5.540;2023-07-13T01:31:07;16.50;99.90
24262;DHT22;12385;51.412;5.540;2023-07-13T01:33:35;16.50;99.90
24262;DHT22;12385;51.412;5.540;2023-07-13T01:36:01;16.50;99.90
24262;DHT22;12385;51.412;5.540;2023-07-13T01:38:27;16.40;99.90
24262;DHT22;12385;51.412;5.540;2023-07-13T01:40:53;16.40;99.90
24262;DHT22;12385;51.412;5.540;2023-07-13T01:43:19;16.40;99.90
24262;DHT22;12385;51.412;5.540;2023-07-13T01:45:45;16.30;99.90
24262;DHT22;12385;51.412;5.540;2023-07-13T01:48:11;16.40;99.90
24262;DHT22;12385;51.412;5.540;2023-07-13T01:50:38;16.30;99.90
24262;DHT22;12385;51.412;5.540;2023-07-13T01:53:04;16.30;99.90
24262;DHT22;12385;51.412;5.540;2023-07-13T01:55:31;16.30;99.90
24262;DHT22;12385;51.412;5.540;2023-07-13T01:57:57;16.30;99.90
24262;DHT22;12385;51.412;5.540;2023-07-13T02:00:22;16.30;99.90
24262;DHT22;12385;51.412;5.540;2023-07-13T02:02:48;16.30;99.90
24262;DHT22;12385;51.412;5.540;2023-07-13T02:05:14;16.20;99.90
24262;DHT22;12385;51.412;5.540;2023-07-13T02:07:40;16.20;99.90
24262;DHT22;12385;51.412;5.540;2023-07-13T02:10:08;16.20;99.90
24262;DHT22;12385;51.412;5.540;2023-07-13T02:12:34;16.20;99.90
24262;DHT22;12385;51.412;5.540;2023-07-13T02:15:00;16.20;99.90
24262;DHT22;12385;51.412;5.540;2023-07-13T02:17:27;16.10;99.90
24262;DHT22;12385;51.412;5.540;2023-07-13T02:19:53;16.10;99.90
24262;DHT22;12385;51.412;5.540;2023-07-13T02:22:18;16.00;99.90
24262;DHT22;12385;51.412;5.540;2023-07-13T02:24:44;16.00;99.90
24262;DHT22;12385;51.412;5.540;2023-07-13T02:27:10;15.90;99.90
24262;DHT22;12385;51.412;5.540;2023-07-13T02:29:36;15.90;99.90
24262;DHT22;12385;51.412;5.540;2023-07-13T02:32:02;15.90;99.90
24262;DHT22;12385;51.412;5.540;2023-07-13T02:34:28;15.90;99.90
24262;DHT22;12385;51.412;5.540;2023-07-13T02:36:53;15.90;99.90
24262;DHT22;12385;51.412;5.540;2023-07-13T02:39:19;15.80;99.90
24262;DHT22;12385;51.412;5.540;2023-07-13T02:41:45;15.80;99.90
24262;DHT22;12385;51.412;5.540;2023-07-13T02:44:13;15.80;99.90
24262;DHT22;12385;51.412;5.540;2023-07-13T02:46:39;15.80;99.90
24262;DHT22;12385;51.412;5.540;2023-07-13T02:49:05;15.80;99.90
24262;DHT22;12385;51.412;5.540;2023-07-13T02:51:31;15.80;99.90
24262;DHT22;12385;51.412;5.540;2023-07-13T02:54:00;15.80;99.90
24262;DHT22;12385;51.412;5.540;2023-07-13T02:56:28;15.70;99.90
24262;DHT22;12385;51.412;5.540;2023-07-13T02:58:54;15.70;99.90
24262;DHT22;12385;51.412;5.540;2023-07-13T03:01:21;15.70;99.90
24262;DHT22;12385;51.412;5.540;2023-07-13T03:03:48;15.70;99.90
24262;DHT22;12385;51.412;5.540;2023-07-13T03:06:14;15.60;99.90
24262;DHT22;12385;51.412;5.540;2023-07-13T03:08:41;15.60;99.90
24262;DHT22;12385;51.412;5.540;2023-07-13T03:11:10;15.60;99.90
24262;DHT22;12385;51.412;5.540;2023-07-13T03:13:40;15.60;99.90
24262;DHT22;12385;51.412;5.540;2023-07-13T03:16:07;15.50;99.90
24262;DHT22;12385;51.412;5.540;2023-07-13T03:18:33;15.50;99.90
24262;DHT22;12385;51.412;5.540;2023-07-13T03:20:59;15.50;99.90
24262;DHT22;12385;51.412;5.540;2023-07-13T03:23:24;15.50;99.90
24262;DHT22;12385;51.412;5.540;2023-07-13T03:26:00;15.50;99.90
24262;DHT22;12385;51.412;5.540;2023-07-13T03:28:26;15.50;99.90
24262;DHT22;12385;51.412;5.540;2023-07-13T03:31:09;15.50;99.90
24262;DHT22;12385;51.412;5.540;2023-07-13T03:33:35;15.50;99.90
24262;DHT22;12385;51.412;5.540;2023-07-13T03:36:02;15.40;99.90
24262;DHT22;12385;51.412;5.540;2023-07-13T03:38:28;15.40;99.90
24262;DHT22;12385;51.412;5.540;2023-07-13T03:40:54;15.40;99.90
24262;DHT22;12385;51.412;5.540;2023-07-13T03:43:20;15.30;99.90
24262;DHT22;12385;51.412;5.540;2023-07-13T03:45:46;15.30;99.90
24262;DHT22;12385;51.412;5.540;2023-07-13T03:48:12;15.30;99.90
24262;DHT22;12385;51.412;5.540;2023-07-13T03:50:37;15.30;99.90
24262;DHT22;12385;51.412;5.540;2023-07-13T03:53:04;15.30;99.90
24262;DHT22;12385;51.412;5.540;2023-07-13T03:55:30;15.20;99.90
24262;DHT22;12385;51.412;5.540;2023-07-13T03:58:01;15.30;99.90
24262;DHT22;12385;51.412;5.540;2023-07-13T04:00:45;15.20;99.90
24262;DHT22;12385;51.412;5.540;2023-07-13T04:03:11;15.20;99.90
24262;DHT22;12385;51.412;5.540;2023-07-13T04:05:37;15.10;99.90
24262;DHT22;12385;51.412;5.540;2023-07-13T04:08:06;15.20;99.90
24262;DHT22;12385;51.412;5.540;2023-07-13T04:10:31;15.20;99.90
24262;DHT22;12385;51.412;5.540;2023-07-13T04:12:57;15.20;99.90
24262;DHT22;12385;51.412;5.540;2023-07-13T04:15:22;15.20;99.90
24262;DHT22;12385;51.412;5.540;2023-07-13T04:17:48;15.30;99.90
24262;DHT22;12385;51.412;5.540;2023-07-13T04:20:14;15.30;99.90
24262;DHT22;12385;51.412;5.540;2023-07-13T04:22:39;15.30;99.90
24262;DHT22;12385;51.412;5.540;2023-07-13T04:25:06;15.30;99.90
24262;DHT22;12385;51.412;5.540;2023-07-13T04:27:31;15.30;99.90
24262;DHT22;12385;51.412;5.540;2023-07-13T04:29:57;15.40;99.90
24262;DHT22;12385;51.412;5.540;2023-07-13T04:32:23;15.40;99.90
24262;DHT22;12385;51.412;5.540;2023-07-13T04:34:49;15.50;99.90
24262;DHT22;12385;51.412;5.540;2023-07-13T04:37:19;15.50;99.90
24262;DHT22;12385;51.412;5.540;2023-07-13T04:39:45;15.50;99.90
24262;DHT22;12385;51.412;5.540;2023-07-13T04:42:10;15.60;99.90
24262;DHT22;12385;51.412;5.540;2023-07-13T04:44:36;15.60;99.90
24262;DHT22;12385;51.412;5.540;2023-07-13T04:47:02;15.60;99.90
24262;DHT22;12385;51.412;5.540;2023-07-13T04:49:28;15.70;99.90
24262;DHT22;12385;51.412;5.540;2023-07-13T04:51:53;15.80;99.90
24262;DHT22;12385;51.412;5.540;2023-07-13T04:54:20;15.80;99.90
24262;DHT22;12385;51.412;5.540;2023-07-13T04:56:47;15.90;99.90
24262;DHT22;12385;51.412;5.540;2023-07-13T04:59:13;16.00;99.90
24262;DHT22;12385;51.412;5.540;2023-07-13T05:01:38;16.10;99.90
24262;DHT22;12385;51.412;5.540;2023-07-13T05:04:04;16.20;99.90
24262;DHT22;12385;51.412;5.540;2023-07-13T05:06:30;16.30;99.90
24262;DHT22;12385;51.412;5.540;2023-07-13T05:08:56;16.30;99.90
24262;DHT22;12385;51.412;5.540;2023-07-13T05:11:22;16.40;99.90
24262;DHT22;12385;51.412;5.540;2023-07-13T05:13:48;16.50;99.90
24262;DHT22;12385;51.412;5.540;2023-07-13T05:16:14;16.50;99.90
24262;DHT22;12385;51.412;5.540;2023-07-13T05:18:39;16.60;99.90
24262;DHT22;12385;51.412;5.540;2023-07-13T05:21:07;16.70;99.90
24262;DHT22;12385;51.412;5.540;2023-07-13T05:23:34;16.80;99.90
24262;DHT22;12385;51.412;5.540;2023-07-13T05:26:01;16.80;99.90
24262;DHT22;12385;51.412;5.540;2023-07-13T05:28:28;16.90;99.90
24262;DHT22;12385;51.412;5.540;2023-07-13T05:30:54;17.00;99.90
24262;DHT22;12385;51.412;5.540;2023-07-13T05:33:20;17.10;99.90
24262;DHT22;12385;51.412;5.540;2023-07-13T05:35:46;17.10;99.90
24262;DHT22;12385;51.412;5.540;2023-07-13T05:38:12;17.20;99.90
24262;DHT22;12385;51.412;5.540;2023-07-13T05:40:38;17.20;99.90
24262;DHT22;12385;51.412;5.540;2023-07-13T05:43:04;17.30;99.90
24262;DHT22;12385;51.412;5.540;2023-07-13T05:45:30;17.30;99.90
24262;DHT22;12385;51.412;5.540;2023-07-13T05:47:55;17.30;99.90
24262;DHT22;12385;51.412;5.540;2023-07-13T05:50:21;17.30;99.90
24262;DHT22;12385;51.412;5.540;2023-07-13T05:52:47;17.30;99.90
24262;DHT22;12385;51.412;5.540;2023-07-13T05:55:13;17.30;99.90
24262;DHT22;12385;51.412;5.540;2023-07-13T05:57:39;17.30;99.90
24262;DHT22;12385;51.412;5.540;2023-07-13T06:00:05;17.30;99.90
24262;DHT22;12385;51.412;5.540;2023-07-13T06:02:31;17.20;99.90
24262;DHT22;12385;51.412;5.540;2023-07-13T06:04:57;17.20;99.90
24262;DHT22;12385;51.412;5.540;2023-07-13T06:07:23;17.30;99.90
24262;DHT22;12385;51.412;5.540;2023-07-13T06:09:48;17.30;99.90
24262;DHT22;12385;51.412;5.540;2023-07-13T06:12:14;17.40;99.90
24262;DHT22;12385;51.412;5.540;2023-07-13T06:14:40;17.50;99.90
24262;DHT22;12385;51.412;5.540;2023-07-13T06:17:05;17.50;99.90
24262;DHT22;12385;51.412;5.540;2023-07-13T06:19:31;17.50;99.90
24262;DHT22;12385;51.412;5.540;2023-07-13T06:21:57;17.60;99.90
24262;DHT22;12385;51.412;5.540;2023-07-13T06:24:24;17.70;99.90
24262;DHT22;12385;51.412;5.540;2023-07-13T06:26:50;17.70;99.90
24262;DHT22;12385;51.412;5.540;2023-07-13T06:29:15;17.80;99.90
24262;DHT22;12385;51.412;5.540;2023-07-13T06:31:42;17.80;99.90
24262;DHT22;12385;51.412;5.540;2023-07-13T06:34:09;17.80;99.90
24262;DHT22;12385;51.412;5.540;2023-07-13T06:36:35;17.80;99.90
24262;DHT22;12385;51.412;5.540;2023-07-13T06:39:02;17.90;99.90
24262;DHT22;12385;51.412;5.540;2023-07-13T06:41:28;18.00;99.90
24262;DHT22;12385;51.412;5.540;2023-07-13T06:43:54;18.00;99.90
24262;DHT22;12385;51.412;5.540;2023-07-13T06:46:23;18.00;99.90
24262;DHT22;12385;51.412;5.540;2023-07-13T06:48:49;18.10;99.90
24262;DHT22;12385;51.412;5.540;2023-07-13T06:51:15;18.10;99.90
24262;DHT22;12385;51.412;5.540;2023-07-13T06:53:41;18.10;99.90
24262;DHT22;12385;51.412;5.540;2023-07-13T06:56:09;18.10;99.90
24262;DHT22;12385;51.412;5.540;2023-07-13T06:58:36;18.10;99.90
24262;DHT22;12385;51.412;5.540;2023-07-13T07:01:03;18.20;99.90
24262;DHT22;12385;51.412;5.540;2023-07-13T07:03:29;18.20;99.90
24262;DHT22;12385;51.412;5.540;2023-07-13T07:06:11;18.20;99.90
24262;DHT22;12385;51.412;5.540;2023-07-13T07:08:38;18.30;99.90
24262;DHT22;12385;51.412;5.540;2023-07-13T07:11:03;18.30;99.90
24262;DHT22;12385;51.412;5.540;2023-07-13T07:13:29;18.40;99.90
24262;DHT22;12385;51.412;5.540;2023-07-13T07:15:56;18.50;99.90
24262;DHT22;12385;51.412;5.540;2023-07-13T07:18:21;18.50;99.90
24262;DHT22;12385;51.412;5.540;2023-07-13T07:20:48;18.50;99.90
24262;DHT22;12385;51.412;5.540;2023-07-13T07:23:14;18.50;99.90
24262;DHT22;12385;51.412;5.540;2023-07-13T07:25:40;18.50;99.90
24262;DHT22;12385;51.412;5.540;2023-07-13T07:28:08;18.60;99.90
24262;DHT22;12385;51.412;5.540;2023-07-13T07:30:34;18.70;99.90
24262;DHT22;12385;51.412;5.540;2023-07-13T07:33:00;18.80;99.90
24262;DHT22;12385;51.412;5.540;2023-07-13T07:35:26;18.80;99.90
24262;DHT22;12385;51.412;5.540;2023-07-13T07:37:52;18.80;99.90
24262;DHT22;12385;51.412;5.540;2023-07-13T07:40:19;18.90;99.90
24262;DHT22;12385;51.412;5.540;2023-07-13T07:42:45;19.00;99.90
24262;DHT22;12385;51.412;5.540;2023-07-13T07:45:10;19.00;99.90
24262;DHT22;12385;51.412;5.540;2023-07-13T07:47:39;19.00;99.90
24262;DHT22;12385;51.412;5.540;2023-07-13T07:50:05;18.90;99.90
24262;DHT22;12385;51.412;5.540;2023-07-13T07:52:31;18.90;99.90
24262;DHT22;12385;51.412;5.540;2023-07-13T07:54:56;18.90;99.90
24262;DHT22;12385;51.412;5.540;2023-07-13T07:57:22;18.80;99.90
24262;DHT22;12385;51.412;5.540;2023-07-13T07:59:48;18.80;99.90
24262;DHT22;12385;51.412;5.540;2023-07-13T08:02:13;18.80;99.90
24262;DHT22;12385;51.412;5.540;2023-07-13T08:04:39;18.80;99.90
24262;DHT22;12385;51.412;5.540;2023-07-13T08:07:05;18.90;99.90
24262;DHT22;12385;51.412;5.540;2023-07-13T08:09:32;19.00;99.90
24262;DHT22;12385;51.412;5.540;2023-07-13T08:11:57;19.10;99.90
24262;DHT22;12385;51.412;5.540;2023-07-13T08:14:23;19.20;99.90
24262;DHT22;12385;51.412;5.540;2023-07-13T08:16:49;19.40;99.90
24262;DHT22;12385;51.412;5.540;2023-07-13T08:19:15;19.50;99.90
24262;DHT22;12385;51.412;5.540;2023-07-13T08:21:40;19.70;99.90
24262;DHT22;12385;51.412;5.540;2023-07-13T08:24:08;19.90;99.90
24262;DHT22;12385;51.412;5.540;2023-07-13T08:26:34;20.00;99.90
24262;DHT22;12385;51.412;5.540;2023-07-13T08:29:00;20.20;99.90
24262;DHT22;12385;51.412;5.540;2023-07-13T08:31:26;20.10;99.90
24262;DHT22;12385;51.412;5.540;2023-07-13T08:33:52;20.20;99.90
24262;DHT22;12385;51.412;5.540;2023-07-13T08:36:20;20.20;99.90
24262;DHT22;12385;51.412;5.540;2023-07-13T08:38:46;20.30;99.90
24262;DHT22;12385;51.412;5.540;2023-07-13T08:41:18;20.40;99.90
24262;DHT22;12385;51.412;5.540;2023-07-13T08:43:51;20.60;99.90
24262;DHT22;12385;51.412;5.540;2023-07-13T08:46:28;20.80;99.90
24262;DHT22;12385;51.412;5.540;2023-07-13T08:49:08;21.10;99.90
24262;DHT22;12385;51.412;5.540;2023-07-13T08:51:45;21.10;99.90
24262;DHT22;12385;51.412;5.540;2023-07-13T08:56:54;21.20;99.90
24262;DHT22;12385;51.412;5.540;2023-07-13T08:59:32;21.30;99.90
24262;DHT22;12385;51.412;5.540;2023-07-13T09:04:41;21.30;99.90
24262;DHT22;12385;51.412;5.540;2023-07-13T09:15:39;21.10;99.90
24262;DHT22;12385;51.412;5.540;2023-07-13T09:18:11;21.10;99.90
24262;DHT22;12385;51.412;5.540;2023-07-13T09:20:46;21.00;99.90
24262;DHT22;12385;51.412;5.540;2023-07-13T09:23:16;21.00;99.90
24262;DHT22;12385;51.412;5.540;2023-07-13T09:25:43;21.20;99.90
24262;DHT22;12385;51.412;5.540;2023-07-13T09:33:28;21.60;99.90
24262;DHT22;12385;51.412;5.540;2023-07-13T09:35:59;21.50;99.90
24262;DHT22;12385;51.412;5.540;2023-07-13T09:38:29;21.40;99.90
24262;DHT22;12385;51.412;5.540;2023-07-13T09:41:11;21.30;99.90
24262;DHT22;12385;51.412;5.540;2023-07-13T09:44:07;21.20;99.90
24262;DHT22;12385;51.412;5.540;2023-07-13T09:46:37;21.30;99.90
24262;DHT22;12385;51.412;5.540;2023-07-13T09:49:03;21.40;99.90
24262;DHT22;12385;51.412;5.540;2023-07-13T09:51:29;21.50;99.90
24262;DHT22;12385;51.412;5.540;2023-07-13T09:53:55;21.70;99.90
24262;DHT22;12385;51.412;5.540;2023-07-13T09:56:24;21.90;99.90
24262;DHT22;12385;51.412;5.540;2023-07-13T09:58:50;22.10;99.90
24262;DHT22;12385;51.412;5.540;2023-07-13T10:01:31;22.40;99.90
24262;DHT22;12385;51.412;5.540;2023-07-13T10:03:58;22.40;99.90
24262;DHT22;12385;51.412;5.540;2023-07-13T10:06:23;22.50;99.90
24262;DHT22;12385;51.412;5.540;2023-07-13T10:08:50;22.50;99.90
24262;DHT22;12385;51.412;5.540;2023-07-13T10:11:17;22.40;99.90
24262;DHT22;12385;51.412;5.540;2023-07-13T10:13:56;22.30;99.90
24262;DHT22;12385;51.412;5.540;2023-07-13T10:16:25;22.20;99.90
24262;DHT22;12385;51.412;5.540;2023-07-13T10:19:11;22.30;99.90
24262;DHT22;12385;51.412;5.540;2023-07-13T10:21:56;22.40;99.90
24262;DHT22;12385;51.412;5.540;2023-07-13T10:24:26;22.50;99.90
24262;DHT22;12385;51.412;5.540;2023-07-13T10:27:03;22.50;99.90
24262;DHT22;12385;51.412;5.540;2023-07-13T10:29:38;22.50;99.90
24262;DHT22;12385;51.412;5.540;2023-07-13T10:32:11;22.60;99.90
24262;DHT22;12385;51.412;5.540;2023-07-13T10:34:37;22.70;99.90
24262;DHT22;12385;51.412;5.540;2023-07-13T10:37:05;22.90;99.90
24262;DHT22;12385;51.412;5.540;2023-07-13T10:39:35;23.20;99.90
24262;DHT22;12385;51.412;5.540;2023-07-13T10:42:05;23.30;99.90
24262;DHT22;12385;51.412;5.540;2023-07-13T10:44:33;23.40;99.90
24262;DHT22;12385;51.412;5.540;2023-07-13T10:47:12;23.50;99.90
24262;DHT22;12385;51.412;5.540;2023-07-13T10:49:41;23.60;99.60
24262;DHT22;12385;51.412;5.540;2023-07-13T10:55:03;23.40;98.10
24262;DHT22;12385;51.412;5.540;2023-07-13T10:57:29;23.30;98.60
24262;DHT22;12385;51.412;5.540;2023-07-13T11:00:15;23.10;99.00
24262;DHT22;12385;51.412;5.540;2023-07-13T11:02:41;22.60;99.90
24262;DHT22;12385;51.412;5.540;2023-07-13T11:05:29;22.10;99.90
24262;DHT22;12385;51.412;5.540;2023-07-13T11:10:54;21.30;99.90
24262;DHT22;12385;51.412;5.540;2023-07-13T11:21:28;21.60;99.90
24262;DHT22;12385;51.412;5.540;2023-07-13T11:24:28;21.70;99.90
24262;DHT22;12385;51.412;5.540;2023-07-13T11:26:56;21.70;99.90
24262;DHT22;12385;51.412;5.540;2023-07-13T11:31:56;21.70;99.90
24262;DHT22;12385;51.412;5.540;2023-07-13T11:34:38;21.80;99.90
24262;DHT22;12385;51.412;5.540;2023-07-13T11:37:11;21.90;99.90
24262;DHT22;12385;51.412;5.540;2023-07-13T11:39:41;22.10;99.90
24262;DHT22;12385;51.412;5.540;2023-07-13T11:42:12;22.50;99.90
24262;DHT22;12385;51.412;5.540;2023-07-13T11:44:46;22.80;99.90
24262;DHT22;12385;51.412;5.540;2023-07-13T11:47:18;23.10;99.90
24262;DHT22;12385;51.412;5.540;2023-07-13T11:49:49;23.20;99.90
24262;DHT22;12385;51.412;5.540;2023-07-13T11:52:18;23.40;99.90
24262;DHT22;12385;51.412;5.540;2023-07-13T11:55:14;23.50;99.90
24262;DHT22;12385;51.412;5.540;2023-07-13T11:57:49;23.70;99.90
24262;DHT22;12385;51.412;5.540;2023-07-13T12:00:19;23.90;99.60
24262;DHT22;12385;51.412;5.540;2023-07-13T12:02:49;24.20;98.50
24262;DHT22;12385;51.412;5.540;2023-07-13T12:05:18;24.50;97.70
24262;DHT22;12385;51.412;5.540;2023-07-13T12:07:44;24.70;96.00
24262;DHT22;12385;51.412;5.540;2023-07-13T12:10:29;24.80;95.60
24262;DHT22;12385;51.412;5.540;2023-07-13T12:13:01;24.90;94.60
24262;DHT22;12385;51.412;5.540;2023-07-13T12:18:02;25.10;92.80
24262;DHT22;12385;51.412;5.540;2023-07-13T12:20:35;25.20;92.90
24262;DHT22;12385;51.412;5.540;2023-07-13T12:23:05;25.30;91.90
24262;DHT22;12385;51.412;5.540;2023-07-13T12:25:31;25.40;91.00
24262;DHT22;12385;51.412;5.540;2023-07-13T12:27:57;25.40;90.30
24262;DHT22;12385;51.412;5.540;2023-07-13T12:30:27;25.60;88.00
24262;DHT22;12385;51.412;5.540;2023-07-13T12:33:02;25.60;85.30
24262;DHT22;12385;51.412;5.540;2023-07-13T12:35:45;25.70;82.80
24262;DHT22;12385;51.412;5.540;2023-07-13T12:38:12;25.70;82.00
24262;DHT22;12385;51.412;5.540;2023-07-13T12:40:38;25.80;81.40
24262;DHT22;12385;51.412;5.540;2023-07-13T12:43:11;25.80;80.60
24262;DHT22;12385;51.412;5.540;2023-07-13T12:45:37;25.90;80.60
24262;DHT22;12385;51.412;5.540;2023-07-13T12:48:11;25.90;79.70
24262;DHT22;12385;51.412;5.540;2023-07-13T12:50:41;25.80;80.20
24262;DHT22;12385;51.412;5.540;2023-07-13T12:53:20;25.60;80.60
24262;DHT22;12385;51.412;5.540;2023-07-13T12:55:54;25.40;81.90
24262;DHT22;12385;51.412;5.540;2023-07-13T12:58:39;25.30;83.30
24262;DHT22;12385;51.412;5.540;2023-07-13T13:01:09;25.10;83.30
24262;DHT22;12385;51.412;5.540;2023-07-13T13:03:47;24.80;84.10
24262;DHT22;12385;51.412;5.540;2023-07-13T13:08:46;24.20;86.50
24262;DHT22;12385;51.412;5.540;2023-07-13T13:11:15;24.00;87.70
24262;DHT22;12385;51.412;5.540;2023-07-13T13:13:42;23.70;90.40
24262;DHT22;12385;51.412;5.540;2023-07-13T13:18:46;23.00;93.70
24262;DHT22;12385;51.412;5.540;2023-07-13T13:21:12;22.60;95.70
24262;DHT22;12385;51.412;5.540;2023-07-13T13:23:37;22.40;97.30
24262;DHT22;12385;51.412;5.540;2023-07-13T13:26:08;22.20;98.60
24262;DHT22;12385;51.412;5.540;2023-07-13T13:28:34;22.10;99.80
24262;DHT22;12385;51.412;5.540;2023-07-13T13:31:00;21.90;99.90
24262;DHT22;12385;51.412;5.540;2023-07-13T13:33:26;21.90;99.90
24262;DHT22;12385;51.412;5.540;2023-07-13T13:35:51;21.70;99.90
24262;DHT22;12385;51.412;5.540;2023-07-13T13:38:21;21.70;99.90
24262;DHT22;12385;51.412;5.540;2023-07-13T13:40:48;21.70;99.90
24262;DHT22;12385;51.412;5.540;2023-07-13T13:43:32;21.70;99.90
24262;DHT22;12385;51.412;5.540;2023-07-13T13:45:59;21.90;99.90
24262;DHT22;12385;51.412;5.540;2023-07-13T13:48:36;22.20;99.90
24262;DHT22;12385;51.412;5.540;2023-07-13T13:51:15;22.40;99.90
24262;DHT22;12385;51.412;5.540;2023-07-13T13:53:42;22.60;99.90
24262;DHT22;12385;51.412;5.540;2023-07-13T13:56:08;22.70;99.90
24262;DHT22;12385;51.412;5.540;2023-07-13T13:58:33;22.80;99.90
24262;DHT22;12385;51.412;5.540;2023-07-13T14:00:59;22.90;99.90
24262;DHT22;12385;51.412;5.540;2023-07-13T14:03:26;22.90;99.90
24262;DHT22;12385;51.412;5.540;2023-07-13T14:05:53;22.90;99.90
24262;DHT22;12385;51.412;5.540;2023-07-13T14:08:20;22.90;99.90
24262;DHT22;12385;51.412;5.540;2023-07-13T14:10:49;22.70;99.50
24262;DHT22;12385;51.412;5.540;2023-07-13T14:13:44;22.60;99.80
24262;DHT22;12385;51.412;5.540;2023-07-13T14:16:21;22.40;99.90
24262;DHT22;12385;51.412;5.540;2023-07-13T14:18:48;22.40;99.90
24262;DHT22;12385;51.412;5.540;2023-07-13T14:21:16;22.40;99.90
24262;DHT22;12385;51.412;5.540;2023-07-13T14:23:44;22.40;99.90
24262;DHT22;12385;51.412;5.540;2023-07-13T14:26:15;22.30;99.90
24262;DHT22;12385;51.412;5.540;2023-07-13T14:28:44;22.30;99.90
24262;DHT22;12385;51.412;5.540;2023-07-13T14:31:15;22.30;99.90
24262;DHT22;12385;51.412;5.540;2023-07-13T14:33:42;22.20;99.90
24262;DHT22;12385;51.412;5.540;2023-07-13T14:38:46;22.30;99.90
24262;DHT22;12385;51.412;5.540;2023-07-13T14:41:12;22.30;99.90
24262;DHT22;12385;51.412;5.540;2023-07-13T14:43:37;22.30;99.90
24262;DHT22;12385;51.412;5.540;2023-07-13T14:46:03;22.40;99.90
24262;DHT22;12385;51.412;5.540;2023-07-13T14:48:30;22.50;99.90
24262;DHT22;12385;51.412;5.540;2023-07-13T14:50:57;22.60;99.90
24262;DHT22;12385;51.412;5.540;2023-07-13T14:53:25;22.60;99.90
24262;DHT22;12385;51.412;5.540;2023-07-13T14:55:53;22.60;99.90
24262;DHT22;12385;51.412;5.540;2023-07-13T14:58:19;22.50;99.90
24262;DHT22;12385;51.412;5.540;2023-07-13T15:00:45;22.50;99.90
24262;DHT22;12385;51.412;5.540;2023-07-13T15:03:23;22.70;99.90
24262;DHT22;12385;51.412;5.540;2023-07-13T15:05:50;23.10;99.50
24262;DHT22;12385;51.412;5.540;2023-07-13T15:08:16;23.60;98.90
24262;DHT22;12385;51.412;5.540;2023-07-13T15:10:42;24.10;97.90
24262;DHT22;12385;51.412;5.540;2023-07-13T15:13:16;24.50;96.90
24262;DHT22;12385;51.412;5.540;2023-07-13T15:15:48;25.00;95.70
24262;DHT22;12385;51.412;5.540;2023-07-13T15:18:16;25.40;94.10
24262;DHT22;12385;51.412;5.540;2023-07-13T15:20:43;25.60;93.00
24262;DHT22;12385;51.412;5.540;2023-07-13T15:23:12;25.60;91.90
24262;DHT22;12385;51.412;5.540;2023-07-13T15:25:38;25.40;91.60
24262;DHT22;12385;51.412;5.540;2023-07-13T15:28:04;25.30;91.80
24262;DHT22;12385;51.412;5.540;2023-07-13T15:30:34;25.40;91.50
24262;DHT22;12385;51.412;5.540;2023-07-13T15:33:19;25.60;90.80
24262;DHT22;12385;51.412;5.540;2023-07-13T15:35:47;25.80;90.40
24262;DHT22;12385;51.412;5.540;2023-07-13T15:38:27;26.30;90.30
24262;DHT22;12385;51.412;5.540;2023-07-13T15:40:53;26.70;88.70
24262;DHT22;12385;51.412;5.540;2023-07-13T15:43:20;27.10;89.10
24262;DHT22;12385;51.412;5.540;2023-07-13T15:45:47;27.60;88.40
24262;DHT22;12385;51.412;5.540;2023-07-13T15:48:18;28.00;84.70
24262;DHT22;12385;51.412;5.540;2023-07-13T15:50:51;28.30;83.70
24262;DHT22;12385;51.412;5.540;2023-07-13T15:53:20;28.70;80.20
24262;DHT22;12385;51.412;5.540;2023-07-13T15:55:48;28.90;78.40
24262;DHT22;12385;51.412;5.540;2023-07-13T15:58:15;28.90;76.70
24262;DHT22;12385;51.412;5.540;2023-07-13T16:00:41;28.30;76.70
24262;DHT22;12385;51.412;5.540;2023-07-13T16:03:07;27.80;77.40
24262;DHT22;12385;51.412;5.540;2023-07-13T16:05:33;27.20;78.00
24262;DHT22;12385;51.412;5.540;2023-07-13T16:07:59;26.60;79.40
24262;DHT22;12385;51.412;5.540;2023-07-13T16:10:36;26.10;81.90
24262;DHT22;12385;51.412;5.540;2023-07-13T16:13:19;25.80;82.90
24262;DHT22;12385;51.412;5.540;2023-07-13T16:15:46;25.40;85.20
24262;DHT22;12385;51.412;5.540;2023-07-13T16:18:16;25.10;86.70
24262;DHT22;12385;51.412;5.540;2023-07-13T16:20:48;24.80;87.50
24262;DHT22;12385;51.412;5.540;2023-07-13T16:23:15;24.40;88.70
24262;DHT22;12385;51.412;5.540;2023-07-13T16:25:42;24.20;89.40